createdAt,value
2023-04-25T00:00:18.454Z,12.50
2023-04-25T00:02:45.428Z,12.50
2023-04-25T00:05:12.645Z,12.40
2023-04-25T00:07:41.466Z,12.40
2023-04-25T00:10:09.185Z,12.50
2023-04-25T00:12:36.928Z,12.50
2023-04-25T00:15:04.201Z,12.40
2023-04-25T00:17:31.046Z,12.50
2023-04-25T00:19:59.290Z,12.50
2023-04-25T00:22:26.114Z,12.60
2023-04-25T00:24:54.381Z,12.50
2023-04-25T00:27:21.172Z,12.60
2023-04-25T00:29:47.965Z,12.60
2023-04-25T00:32:14.764Z,12.60
2023-04-25T00:34:41.536Z,12.60
2023-04-25T00:37:08.379Z,12.60
2023-04-25T00:39:35.160Z,12.50
2023-04-25T00:42:03.095Z,12.50
2023-04-25T00:44:31.668Z,12.50
2023-04-25T00:46:59.084Z,12.50
2023-04-25T00:49:25.972Z,12.50
2023-04-25T00:51:52.751Z,12.50
2023-04-25T00:54:19.631Z,12.50
2023-04-25T00:56:46.428Z,12.50
2023-04-25T00:59:14.212Z,12.50
2023-04-25T01:01:42.682Z,12.50
2023-04-25T01:04:09.647Z,12.40
2023-04-25T01:06:36.659Z,12.30
2023-04-25T01:09:04.489Z,12.30
2023-04-25T01:11:31.417Z,12.30
2023-04-25T01:13:58.465Z,12.20
2023-04-25T01:16:25.973Z,12.20
2023-04-25T01:18:52.905Z,12.20
2023-04-25T01:21:19.878Z,12.20
2023-04-25T01:23:47.374Z,12.20
2023-04-25T01:26:14.325Z,12.10
2023-04-25T01:28:42.371Z,12.10
2023-04-25T01:31:10.290Z,12.10
2023-04-25T01:33:37.319Z,11.90
2023-04-25T01:36:04.637Z,11.90
2023-04-25T01:38:31.485Z,11.90
2023-04-25T01:40:58.754Z,11.90
2023-04-25T01:43:27.447Z,11.80
2023-04-25T01:45:54.629Z,11.90
2023-04-25T01:48:21.651Z,11.90
2023-04-25T01:50:48.685Z,11.90
2023-04-25T01:53:15.847Z,11.90
2023-04-25T01:55:42.835Z,11.90
2023-04-25T01:58:14.013Z,12.00
2023-04-25T02:00:41.898Z,12.00
2023-04-25T02:03:09.990Z,12.10
2023-04-25T02:05:38.245Z,12.20
2023-04-25T02:08:09.035Z,12.10
2023-04-25T02:10:36.584Z,12.00
2023-04-25T02:13:03.947Z,12.00
2023-04-25T02:15:30.906Z,12.00
2023-04-25T02:17:58.921Z,11.90
2023-04-25T02:20:26.033Z,11.90
2023-04-25T02:22:53.263Z,11.90
2023-04-25T02:25:21.355Z,11.90
2023-04-25T02:27:49.510Z,11.90
2023-04-25T02:30:16.616Z,11.70
2023-04-25T02:32:43.651Z,11.70
2023-04-25T02:35:11.189Z,11.60
2023-04-25T02:37:39.613Z,11.60
2023-04-25T02:40:07.561Z,11.60
2023-04-25T02:42:34.580Z,11.60
2023-04-25T02:45:01.531Z,11.50
2023-04-25T02:47:28.578Z,11.50
2023-04-25T02:49:55.709Z,11.40
2023-04-25T02:52:22.491Z,11.40
2023-04-25T02:54:49.506Z,11.40
2023-04-25T02:57:16.322Z,11.50
2023-04-25T02:59:43.112Z,11.40
2023-04-25T03:02:10.818Z,11.30
2023-04-25T03:04:37.977Z,11.40
2023-04-25T03:07:05.401Z,11.40
2023-04-25T03:09:32.302Z,11.40
2023-04-25T03:11:59.151Z,11.40
2023-04-25T03:14:25.939Z,11.30
2023-04-25T03:16:52.830Z,11.20
2023-04-25T03:19:19.778Z,11.20
2023-04-25T03:21:46.628Z,11.30
2023-04-25T03:24:13.555Z,11.40
2023-04-25T03:26:40.435Z,11.40
2023-04-25T03:29:07.374Z,11.40
2023-04-25T03:31:34.288Z,11.50
2023-04-25T03:34:01.268Z,11.60
2023-04-25T03:36:28.037Z,11.60
2023-04-25T03:38:54.820Z,11.50
2023-04-25T03:41:22.843Z,11.60
2023-04-25T03:43:50.282Z,11.60
2023-04-25T03:46:17.419Z,11.60
2023-04-25T03:48:44.201Z,11.50
2023-04-25T03:51:10.983Z,11.60
2023-04-25T03:53:38.409Z,11.50
2023-04-25T03:56:05.576Z,11.50
2023-04-25T03:58:32.589Z,11.50
2023-04-25T04:00:59.398Z,11.40
2023-04-25T04:03:26.658Z,11.50
2023-04-25T04:05:54.826Z,11.50
2023-04-25T04:08:21.780Z,11.50
2023-04-25T04:10:48.652Z,11.50
2023-04-25T04:13:15.562Z,11.50
2023-04-25T04:15:42.537Z,11.50
2023-04-25T04:18:09.359Z,11.50
2023-04-25T04:20:36.183Z,11.50
2023-04-25T04:23:03.036Z,11.40
2023-04-25T04:25:31.093Z,11.40
2023-04-25T04:27:58.480Z,11.50
2023-04-25T04:30:26.417Z,11.60
2023-04-25T04:32:53.540Z,11.60
2023-04-25T04:35:20.440Z,11.70
2023-04-25T04:37:47.318Z,11.80
2023-04-25T04:40:16.621Z,11.80
2023-04-25T04:42:44.296Z,11.90
2023-04-25T04:45:11.383Z,11.70
2023-04-25T04:47:40.522Z,11.60
2023-04-25T04:50:10.374Z,11.60
2023-04-25T04:52:38.341Z,11.60
2023-04-25T04:55:09.190Z,11.70
2023-04-25T04:57:36.879Z,11.60
2023-04-25T05:00:06.176Z,11.70
2023-04-25T05:02:33.124Z,11.70
2023-04-25T05:05:00.064Z,11.70
2023-04-25T05:07:26.992Z,11.60
2023-04-25T05:09:53.753Z,11.50
2023-04-25T05:12:20.667Z,11.60
2023-04-25T05:14:47.468Z,11.60
2023-04-25T05:17:14.299Z,11.60
2023-04-25T05:19:41.307Z,11.60
2023-04-25T05:22:08.203Z,11.50
2023-04-25T05:24:35.100Z,11.40
2023-04-25T05:27:01.949Z,11.40
2023-04-25T05:29:28.788Z,11.20
2023-04-25T05:31:55.750Z,11.00
2023-04-25T05:34:22.655Z,10.90
2023-04-25T05:36:49.800Z,10.90
2023-04-25T05:39:18.417Z,10.90
2023-04-25T05:41:45.506Z,11.00
2023-04-25T05:44:12.287Z,10.90
2023-04-25T05:46:39.135Z,10.80
2023-04-25T05:49:07.207Z,10.80
2023-04-25T05:51:34.145Z,10.80
2023-04-25T05:54:01.045Z,10.70
2023-04-25T05:56:27.991Z,10.80
2023-04-25T05:58:54.853Z,10.90
2023-04-25T06:01:22.540Z,10.90
2023-04-25T06:03:49.886Z,11.00
2023-04-25T06:06:17.290Z,11.10
2023-04-25T06:08:44.165Z,11.00
2023-04-25T06:11:10.985Z,10.90
2023-04-25T06:13:37.815Z,10.90
2023-04-25T06:16:05.890Z,10.90
2023-04-25T06:18:39.258Z,10.90
2023-04-25T06:21:06.361Z,11.00
2023-04-25T06:23:33.487Z,11.00
2023-04-25T06:26:00.523Z,10.90
2023-04-25T06:28:27.544Z,10.90
2023-04-25T06:30:54.361Z,10.80
2023-04-25T06:33:28.155Z,10.70
2023-04-25T06:35:55.393Z,10.70
2023-04-25T06:38:22.260Z,10.60
2023-04-25T06:40:49.589Z,10.80
2023-04-25T06:43:16.534Z,10.60
2023-04-25T06:45:44.103Z,10.70
2023-04-25T06:48:12.025Z,10.50
2023-04-25T06:50:39.511Z,10.50
2023-04-25T06:53:06.443Z,10.50
2023-04-25T06:55:33.295Z,10.50
2023-04-25T06:58:00.150Z,10.50
2023-04-25T07:00:27.234Z,10.60
2023-04-25T07:02:54.159Z,10.60
2023-04-25T07:05:21.395Z,10.50
2023-04-25T07:07:48.225Z,10.50
2023-04-25T07:10:15.022Z,10.50
2023-04-25T07:12:41.791Z,10.60
2023-04-25T07:15:11.068Z,10.50
2023-04-25T07:17:38.272Z,10.50
2023-04-25T07:20:07.062Z,10.40
2023-04-25T07:22:38.340Z,10.40
2023-04-25T07:25:05.604Z,10.60
2023-04-25T07:27:32.541Z,10.80
2023-04-25T07:29:59.405Z,10.70
2023-04-25T07:32:28.434Z,10.80
2023-04-25T07:34:55.378Z,10.70
2023-04-25T07:37:22.367Z,10.60
2023-04-25T07:39:49.464Z,10.50
2023-04-25T07:42:16.391Z,10.60
2023-04-25T07:44:43.754Z,10.80
2023-04-25T07:47:11.314Z,10.80
2023-04-25T07:49:38.620Z,10.70
2023-04-25T07:52:07.185Z,10.60
2023-04-25T07:54:34.329Z,10.60
2023-04-25T07:57:01.499Z,10.60
2023-04-25T07:59:30.246Z,10.60
2023-04-25T08:01:58.738Z,10.80
2023-04-25T08:04:27.886Z,11.00
2023-04-25T08:06:57.855Z,11.10
2023-04-25T08:09:25.045Z,11.10
2023-04-25T08:11:51.928Z,10.90
2023-04-25T08:14:18.860Z,11.00
2023-04-25T08:16:45.794Z,11.00
2023-04-25T08:19:13.036Z,10.80
2023-04-25T08:21:39.874Z,10.90
2023-04-25T08:24:07.028Z,10.80
2023-04-25T08:26:35.040Z,10.80
2023-04-25T08:29:01.948Z,10.70
2023-04-25T08:31:28.825Z,10.50
2023-04-25T08:33:56.361Z,10.50
2023-04-25T08:36:37.829Z,10.50
2023-04-25T08:39:06.073Z,10.50
2023-04-25T08:41:33.283Z,10.50
2023-04-25T08:44:02.130Z,10.50
2023-04-25T08:46:32.331Z,10.50
2023-04-25T08:49:02.912Z,10.50
2023-04-25T08:51:33.185Z,10.50
2023-04-25T08:56:48.978Z,10.30
2023-04-25T08:59:15.940Z,10.20
2023-04-25T09:01:42.910Z,10.20
2023-04-25T09:04:10.815Z,10.20
2023-04-25T09:06:37.926Z,10.30
2023-04-25T09:09:09.686Z,10.20
2023-04-25T09:11:37.727Z,10.30
2023-04-25T09:14:21.438Z,10.10
2023-04-25T09:16:57.353Z,10.10
2023-04-25T09:19:41.034Z,10.10
2023-04-25T09:22:12.654Z,10.10
2023-04-25T09:24:45.445Z,10.10
2023-04-25T09:27:19.242Z,10.20
2023-04-25T09:29:47.375Z,10.30
2023-04-25T09:32:22.725Z,10.30
2023-04-25T09:34:51.905Z,10.20
2023-04-25T09:37:29.351Z,10.10
2023-04-25T09:40:00.167Z,10.20
2023-04-25T09:43:17.016Z,10.20
2023-04-25T09:45:48.222Z,10.20
2023-04-25T09:48:20.164Z,10.10
2023-04-25T09:51:04.594Z,10.20
2023-04-25T09:53:33.284Z,10.10
2023-04-25T09:56:01.708Z,10.20
2023-04-25T09:58:32.820Z,10.20
2023-04-25T10:01:06.131Z,10.10
2023-04-25T10:03:37.773Z,9.90
2023-04-25T10:06:09.704Z,10.00
2023-04-25T10:08:38.701Z,9.90
2023-04-25T10:11:08.191Z,9.90
2023-04-25T10:13:39.811Z,9.90
2023-04-25T10:19:48.977Z,10.30
2023-04-25T10:22:27.107Z,10.20
2023-04-25T10:24:54.442Z,10.10
2023-04-25T10:27:21.603Z,10.10
2023-04-25T10:30:05.689Z,10.10
2023-04-25T10:32:36.384Z,10.00
2023-04-25T10:35:19.720Z,10.10
2023-04-25T10:38:10.049Z,10.20
2023-04-25T10:40:37.709Z,10.30
2023-04-25T10:43:32.549Z,10.30
2023-04-25T10:46:02.915Z,10.40
2023-04-25T10:48:35.632Z,10.30
2023-04-25T10:51:16.648Z,10.40
2023-04-25T10:53:57.470Z,10.50
2023-04-25T10:56:28.225Z,10.60
2023-04-25T10:59:12.786Z,10.60
2023-04-25T11:01:45.226Z,10.70
2023-04-25T11:04:21.543Z,10.70
2023-04-25T11:07:07.115Z,10.70
2023-04-25T11:09:41.184Z,10.60
2023-04-25T11:12:15.287Z,10.70
2023-04-25T11:14:42.284Z,10.70
2023-04-25T11:17:10.182Z,10.70
2023-04-25T11:19:37.226Z,10.50
2023-04-25T11:22:18.245Z,10.70
2023-04-25T11:27:28.034Z,10.50
2023-04-25T11:29:54.949Z,10.60
2023-04-25T11:32:22.540Z,10.70
2023-04-25T11:34:49.846Z,10.70
2023-04-25T11:37:17.168Z,10.70
2023-04-25T11:39:46.353Z,10.60
2023-04-25T11:42:16.488Z,10.60
2023-04-25T11:44:43.792Z,10.60
2023-04-25T11:47:10.856Z,10.80
2023-04-25T11:49:37.987Z,10.80
2023-04-25T11:52:08.164Z,10.90
2023-04-25T11:54:38.754Z,11.10
2023-04-25T11:57:05.844Z,11.10
2023-04-25T11:59:33.419Z,11.10
2023-04-25T12:02:02.752Z,11.20
2023-04-25T12:04:34.944Z,11.20
2023-04-25T12:07:02.813Z,11.00
2023-04-25T12:09:34.666Z,10.90
2023-04-25T12:12:06.686Z,10.90
2023-04-25T12:14:35.925Z,10.90
2023-04-25T12:17:05.310Z,10.80
2023-04-25T12:19:47.611Z,11.00
2023-04-25T12:22:22.467Z,11.20
2023-04-25T12:24:49.730Z,11.20
2023-04-25T12:27:19.770Z,11.30
2023-04-25T12:29:56.218Z,11.40
2023-04-25T12:32:23.616Z,11.10
2023-04-25T12:34:50.810Z,11.00
2023-04-25T12:37:18.233Z,11.00
2023-04-25T12:39:45.192Z,10.90
2023-04-25T12:42:15.043Z,10.90
2023-04-25T12:44:42.448Z,11.00
2023-04-25T12:47:09.685Z,11.00
2023-04-25T12:49:36.578Z,10.90
2023-04-25T12:52:03.416Z,10.90
2023-04-25T12:54:30.291Z,11.00
2023-04-25T12:56:57.789Z,11.10
2023-04-25T12:59:24.632Z,11.30
2023-04-25T13:01:51.554Z,11.20
2023-04-25T13:04:21.319Z,11.20
2023-04-25T13:06:48.947Z,11.10
2023-04-25T13:09:16.715Z,11.30
2023-04-25T13:11:43.919Z,11.40
2023-04-25T13:14:10.814Z,11.30
2023-04-25T13:16:37.851Z,11.10
2023-04-25T13:19:04.793Z,11.00
2023-04-25T13:21:33.558Z,11.10
2023-04-25T13:24:19.168Z,11.00
2023-04-25T13:26:45.978Z,11.10
2023-04-25T13:29:12.795Z,11.00
2023-04-25T13:31:39.711Z,10.80
2023-04-25T13:34:06.821Z,10.80
2023-04-25T13:36:33.924Z,10.80
2023-04-25T13:39:00.927Z,10.80
2023-04-25T13:41:27.986Z,11.00
2023-04-25T13:43:55.756Z,10.90
2023-04-25T13:46:40.916Z,11.00
2023-04-25T13:49:16.928Z,11.00
2023-04-25T13:51:44.076Z,11.10
2023-04-25T13:54:11.044Z,11.10
2023-04-25T13:56:37.949Z,10.90
2023-04-25T13:59:04.767Z,10.70
2023-04-25T14:01:35.367Z,10.70
2023-04-25T14:04:04.829Z,10.80
2023-04-25T14:06:33.094Z,10.70
2023-04-25T14:09:02.364Z,10.80
2023-04-25T14:11:29.247Z,10.90
2023-04-25T14:13:56.247Z,11.10
2023-04-25T14:16:24.397Z,11.10
2023-04-25T14:18:51.353Z,11.10
2023-04-25T14:21:18.344Z,11.00
2023-04-25T14:23:45.482Z,11.00
2023-04-25T14:26:13.797Z,10.80
2023-04-25T14:28:40.823Z,10.80
2023-04-25T14:31:13.683Z,10.70
2023-04-25T14:33:43.795Z,10.70
2023-04-25T14:36:36.450Z,10.70
2023-04-25T14:39:06.327Z,10.80
2023-04-25T14:45:02.864Z,10.80
2023-04-25T14:47:45.105Z,10.90
2023-04-25T14:50:24.341Z,10.80
2023-04-25T14:53:05.499Z,10.80
2023-04-25T14:55:47.480Z,10.50
2023-04-25T14:58:19.113Z,10.50
2023-04-25T15:00:47.958Z,10.50
2023-04-25T15:03:20.747Z,10.50
2023-04-25T15:09:25.136Z,10.60
2023-04-25T15:12:06.680Z,10.80
2023-04-25T15:14:40.072Z,10.60
2023-04-25T15:17:07.320Z,10.50
2023-04-25T15:19:34.171Z,10.50
2023-04-25T15:22:07.812Z,10.40
2023-04-25T15:24:35.376Z,10.40
2023-04-25T15:27:02.430Z,10.20
2023-04-25T15:29:30.879Z,10.20
2023-04-25T15:31:58.543Z,10.20
2023-04-25T15:34:25.494Z,10.30
2023-04-25T15:36:52.343Z,10.50
2023-04-25T15:39:19.262Z,10.40
2023-04-25T15:41:46.076Z,10.40
2023-04-25T15:44:13.001Z,10.30
2023-04-25T15:46:40.088Z,10.30
2023-04-25T15:49:07.219Z,10.30
2023-04-25T15:51:35.949Z,10.40
2023-04-25T15:54:04.239Z,10.30
2023-04-25T15:56:31.528Z,10.30
2023-04-25T15:58:58.648Z,10.20
2023-04-25T16:01:31.439Z,10.20
2023-04-25T16:04:13.532Z,10.10
2023-04-25T16:06:53.166Z,10.00
2023-04-25T16:09:20.160Z,9.90
2023-04-25T16:11:49.485Z,9.90
2023-04-25T16:14:23.238Z,9.80
2023-04-25T16:16:50.541Z,9.80
2023-04-25T16:19:21.271Z,9.80
2023-04-25T16:21:48.459Z,9.80
2023-04-25T16:24:15.868Z,9.80
2023-04-25T16:26:43.681Z,9.80
2023-04-25T16:29:14.762Z,9.70
2023-04-25T16:31:42.224Z,9.60
2023-04-25T16:34:09.441Z,9.50
2023-04-25T16:36:36.780Z,9.40
2023-04-25T16:39:03.967Z,9.30
2023-04-25T16:41:31.428Z,9.20
2023-04-25T16:43:58.325Z,9.10
2023-04-25T16:46:25.186Z,9.10
2023-04-25T16:48:52.328Z,9.10
2023-04-25T16:51:19.764Z,9.10
2023-04-25T16:53:48.484Z,9.00
2023-04-25T16:56:15.694Z,9.00
2023-04-25T16:58:43.633Z,8.90
2023-04-25T17:01:16.010Z,8.90
2023-04-25T17:03:44.781Z,8.90
2023-04-25T17:06:12.396Z,8.90
2023-04-25T17:08:39.275Z,8.90
2023-04-25T17:11:06.276Z,8.80
2023-04-25T17:13:33.223Z,8.70
2023-04-25T17:16:01.038Z,8.80
2023-04-25T17:18:28.308Z,8.80
2023-04-25T17:20:55.764Z,8.70
2023-04-25T17:23:22.752Z,8.60
2023-04-25T17:25:49.681Z,8.60
2023-04-25T17:28:16.650Z,8.50
2023-04-25T17:30:44.894Z,8.50
2023-04-25T17:33:11.890Z,8.40
2023-04-25T17:35:41.912Z,8.40
2023-04-25T17:38:10.340Z,8.30
2023-04-25T17:40:37.476Z,8.30
2023-04-25T17:43:04.340Z,8.30
2023-04-25T17:45:34.720Z,8.30
2023-04-25T17:48:02.579Z,8.30
2023-04-25T17:50:29.655Z,8.30
2023-04-25T17:52:56.482Z,8.30
2023-04-25T17:55:24.940Z,8.20
2023-04-25T17:57:52.910Z,8.20
2023-04-25T18:00:19.966Z,8.20
2023-04-25T18:02:48.627Z,8.10
2023-04-25T18:05:16.647Z,8.20
2023-04-25T18:07:43.776Z,8.10
2023-04-25T18:10:11.937Z,8.10
2023-04-25T18:12:39.182Z,8.20
2023-04-25T18:15:07.887Z,8.10
2023-04-25T18:17:39.923Z,8.00
2023-04-25T18:20:16.027Z,8.00
2023-04-25T18:22:44.562Z,8.10
2023-04-25T18:25:14.219Z,8.10
2023-04-25T18:27:42.329Z,8.20
2023-04-25T18:30:11.371Z,8.30
2023-04-25T18:32:38.574Z,8.20
2023-04-25T18:35:06.321Z,8.20
2023-04-25T18:37:33.547Z,8.20
2023-04-25T18:40:06.690Z,8.20
2023-04-25T18:42:34.926Z,8.10
2023-04-25T18:45:01.785Z,8.10
2023-04-25T18:47:28.875Z,8.00
2023-04-25T18:49:55.705Z,8.00
2023-04-25T18:52:23.594Z,8.00
2023-04-25T18:54:58.220Z,8.00
2023-04-25T18:57:25.187Z,7.90
2023-04-25T18:59:52.786Z,7.90
2023-04-25T19:02:20.229Z,8.00
2023-04-25T19:04:47.257Z,7.90
2023-04-25T19:07:15.022Z,7.90
2023-04-25T19:09:41.939Z,7.90
2023-04-25T19:12:09.940Z,7.90
2023-04-25T19:14:36.905Z,7.90
2023-04-25T19:17:04.648Z,7.80
2023-04-25T19:19:32.662Z,7.90
2023-04-25T19:21:59.834Z,8.00
2023-04-25T19:24:30.041Z,7.90
2023-04-25T19:26:57.410Z,7.90
2023-04-25T19:29:24.232Z,8.00
2023-04-25T19:31:55.664Z,8.00
2023-04-25T19:34:31.808Z,7.90
2023-04-25T19:36:59.862Z,7.80
2023-04-25T19:39:27.804Z,7.90
2023-04-25T19:42:04.285Z,7.90
2023-04-25T19:44:31.239Z,7.90
2023-04-25T19:46:59.725Z,8.00
2023-04-25T19:49:27.145Z,7.80
2023-04-25T19:51:54.256Z,7.90
2023-04-25T19:54:23.239Z,7.80
2023-04-25T19:56:51.042Z,7.90
2023-04-25T19:59:24.103Z,7.90
2023-04-25T20:01:51.199Z,7.80
2023-04-25T20:04:19.024Z,7.90
2023-04-25T20:06:58.226Z,7.90
2023-04-25T20:09:25.340Z,8.10
2023-04-25T20:11:52.958Z,7.90
2023-04-25T20:14:33.290Z,7.90
2023-04-25T20:17:02.786Z,7.90
2023-04-25T20:19:29.581Z,7.80
2023-04-25T20:21:57.002Z,7.80
2023-04-25T20:24:23.985Z,7.80
2023-04-25T20:27:18.888Z,7.70
2023-04-25T20:29:46.216Z,7.80
2023-04-25T20:32:13.198Z,7.80
2023-04-25T20:34:40.147Z,7.80
2023-04-25T20:37:08.489Z,7.80
2023-04-25T20:39:35.929Z,7.80
2023-04-25T20:42:03.112Z,7.90
2023-04-25T20:44:30.484Z,7.80
2023-04-25T20:46:57.390Z,7.90
2023-04-25T20:49:24.209Z,7.80
2023-04-25T20:51:51.051Z,7.70
2023-04-25T20:54:18.072Z,7.70
2023-04-25T20:56:45.384Z,7.80
2023-04-25T20:59:13.084Z,7.90
2023-04-25T21:01:40.230Z,7.90
2023-04-25T21:04:07.522Z,7.80
2023-04-25T21:06:34.898Z,7.80
2023-04-25T21:09:04.117Z,7.80
2023-04-25T21:11:31.246Z,7.80
2023-04-25T21:13:58.181Z,7.80
2023-04-25T21:16:25.059Z,7.80
2023-04-25T21:18:52.111Z,7.90
2023-04-25T21:21:19.256Z,7.90
2023-04-25T21:23:46.143Z,7.90
2023-04-25T21:26:12.923Z,7.90
2023-04-25T21:28:39.806Z,7.90
2023-04-25T21:31:06.682Z,7.90
2023-04-25T21:33:33.503Z,7.90
2023-04-25T21:36:01.184Z,7.90
2023-04-25T21:38:28.099Z,7.90
2023-04-25T21:46:26.578Z,7.80
2023-04-25T21:48:54.149Z,7.80
2023-04-25T21:51:34.112Z,7.80
2023-04-25T21:54:05.314Z,7.80
2023-04-25T21:56:33.172Z,7.80
2023-04-25T21:59:00.315Z,7.90
2023-04-25T22:01:27.961Z,7.90
2023-04-25T22:03:55.751Z,7.90
2023-04-25T22:06:22.862Z,7.90
2023-04-25T22:08:50.343Z,8.00
2023-04-25T22:11:17.560Z,8.00
2023-04-25T22:13:45.586Z,8.00
2023-04-25T22:16:12.679Z,8.00
2023-04-25T22:18:40.511Z,7.90
2023-04-25T22:21:08.647Z,7.90
2023-04-25T22:23:37.222Z,8.00
2023-04-25T22:26:04.737Z,8.00
2023-04-25T22:28:33.107Z,7.90
2023-04-25T22:31:00.115Z,8.00
2023-04-25T22:33:27.446Z,7.90
2023-04-25T22:35:54.324Z,7.80
2023-04-25T22:38:21.532Z,7.90
2023-04-25T22:40:48.498Z,7.90
2023-04-25T22:43:15.934Z,7.80
2023-04-25T22:45:43.002Z,7.70
2023-04-25T22:48:10.024Z,7.60
2023-04-25T22:50:39.768Z,7.50
2023-04-25T22:53:13.308Z,7.60
2023-04-25T22:55:40.181Z,7.50
2023-04-25T22:58:10.274Z,7.50
2023-04-25T23:00:37.626Z,7.40
2023-04-25T23:03:05.845Z,7.40
2023-04-25T23:05:33.214Z,7.30
2023-04-25T23:08:00.108Z,7.30
2023-04-25T23:10:28.324Z,7.30
2023-04-25T23:12:58.079Z,7.30
2023-04-25T23:15:27.554Z,7.30
2023-04-25T23:17:54.897Z,7.20
2023-04-25T23:20:21.860Z,7.30
2023-04-25T23:22:48.955Z,7.20
2023-04-25T23:25:18.277Z,7.20
2023-04-25T23:27:45.265Z,7.20
2023-04-25T23:30:12.505Z,7.20
2023-04-25T23:32:42.395Z,7.20
2023-04-25T23:35:10.267Z,7.20
2023-04-25T23:37:38.414Z,7.10
2023-04-25T23:40:12.891Z,7.20
2023-04-25T23:42:44.147Z,7.10
2023-04-25T23:45:11.460Z,7.10
2023-04-25T23:47:38.552Z,7.10
2023-04-25T23:50:09.098Z,7.20
2023-04-25T23:52:36.116Z,7.20
2023-04-25T23:55:05.404Z,7.10
2023-04-25T23:57:32.731Z,7.10
